Toronto, Canada
Current Conditions -  °F | °C
As of 7:00 PM on Monday 22 Dec 2014 (Local Time) from CYYZ Reporting Station
Overcast Overcast  
Wind Chill: 26°   Ceiling: 26000
Heat Index: 32°   Visibility: 12mi
Dew Point: 28°   Wind: 7mph
Humidity: 87%   Direction: 80°E
Pressure: 30.07"   Gusts: NA
Location:  43.65°N, 79.39°W
Report Text: CYYZ 230000Z 08006KT 12SM FEW200 OVC260 00/M02 A3007 RMK CI1CS7 SLP191
Loading
Personal Weather Stations






























Interactive Weather Map New forecast layout! Learn more

10-Day Weather Forecast

Advertisements
Track Severe Weather on mobile